createdAt,value
2018-11-14T00:01:21.475Z,100202.98
2018-11-14T00:03:49.624Z,100199.63
2018-11-14T00:06:17.825Z,100204.98
2018-11-14T00:08:46.075Z,100208.44
2018-11-14T00:11:14.379Z,100198.70
2018-11-14T00:13:42.612Z,100208.86
2018-11-14T00:16:10.755Z,100201.62
2018-11-14T00:18:39.121Z,100199.80
2018-11-14T00:21:07.251Z,100205.88
2018-11-14T00:23:35.462Z,100197.01
2018-11-14T00:26:04.027Z,100206.92
2018-11-14T00:28:32.217Z,100201.33
2018-11-14T00:31:00.377Z,100202.27
2018-11-14T00:33:28.569Z,100196.91
2018-11-14T00:35:56.736Z,100200.84
2018-11-14T00:38:25.525Z,100200.34
2018-11-14T00:40:53.739Z,100195.92
2018-11-14T00:43:21.919Z,100186.77
2018-11-14T00:45:50.210Z,100190.63
2018-11-14T00:48:18.435Z,100187.22
2018-11-14T00:50:46.591Z,100183.86
2018-11-14T00:53:14.783Z,100184.95
2018-11-14T00:55:43.584Z,100183.61
2018-11-14T00:58:11.867Z,100191.68
2018-11-14T01:00:40.188Z,100185.40
2018-11-14T01:03:08.311Z,100188.33
2018-11-14T01:05:36.476Z,100187.66
2018-11-14T01:08:05.011Z,100185.19
2018-11-14T01:10:33.345Z,100189.83
2018-11-14T01:13:01.570Z,100191.56
2018-11-14T01:15:29.659Z,100190.06
2018-11-14T01:17:57.980Z,100198.27
2018-11-14T01:20:26.252Z,100189.17
2018-11-14T01:22:54.395Z,100194.70
2018-11-14T01:25:22.529Z,100197.23
2018-11-14T01:27:50.780Z,100199.45
2018-11-14T01:30:20.999Z,100195.79
2018-11-14T01:32:49.591Z,100197.36
2018-11-14T01:35:18.183Z,100189.30
2018-11-14T01:37:46.341Z,100192.71
2018-11-14T01:40:17.887Z,100188.96
2018-11-14T01:42:47.564Z,100188.09
2018-11-14T01:45:15.811Z,100189.48
2018-11-14T01:47:44.035Z,100183.58
2018-11-14T01:50:12.336Z,100189.01
2018-11-14T01:52:40.617Z,100192.70
2018-11-14T01:55:11.572Z,100187.82
2018-11-14T01:57:39.751Z,100180.52
2018-11-14T02:00:10.172Z,100192.58
2018-11-14T02:02:38.572Z,100192.70
2018-11-14T02:05:07.623Z,100189.94
2018-11-14T02:07:36.276Z,100183.55
2018-11-14T02:10:05.823Z,100186.09
2018-11-14T02:12:33.993Z,100194.44
2018-11-14T02:15:02.234Z,100196.09
2018-11-14T02:17:30.434Z,100191.38
2018-11-14T02:19:58.579Z,100192.78
2018-11-14T02:22:26.724Z,100200.69
2018-11-14T02:24:54.920Z,100198.43
2018-11-14T02:27:23.067Z,100198.04
2018-11-14T02:29:51.239Z,100192.69
2018-11-14T02:32:19.364Z,100191.77
2018-11-14T02:34:47.558Z,100190.75
2018-11-14T02:37:15.729Z,100189.91
2018-11-14T02:39:43.901Z,100189.91
2018-11-14T02:42:12.202Z,100187.51
2018-11-14T02:44:40.363Z,100184.81
2018-11-14T02:47:08.529Z,100185.09
2018-11-14T02:49:36.900Z,100183.37
2018-11-14T02:52:05.468Z,100190.36
2018-11-14T02:54:33.692Z,100185.66
2018-11-14T02:57:02.000Z,100176.29
2018-11-14T02:59:30.172Z,100176.38
2018-11-14T03:01:58.303Z,100185.38
2018-11-14T03:04:26.485Z,100185.71
2018-11-14T03:06:54.632Z,100177.30
2018-11-14T03:09:23.283Z,100182.30
2018-11-14T03:11:51.525Z,100175.37
2018-11-14T03:14:19.708Z,100173.91
2018-11-14T03:16:47.850Z,100169.44
2018-11-14T03:19:16.029Z,100157.75
2018-11-14T03:21:44.192Z,100160.30
2018-11-14T03:24:12.361Z,100163.48
2018-11-14T03:26:40.539Z,100159.33
2018-11-14T03:29:08.830Z,100155.17
2018-11-14T03:31:37.158Z,100155.80
2018-11-14T03:34:05.692Z,100153.74
2018-11-14T03:36:33.843Z,100153.41
2018-11-14T03:39:01.993Z,100143.02
2018-11-14T03:41:30.164Z,100143.90
2018-11-14T03:43:58.443Z,100146.84
2018-11-14T03:46:26.599Z,100146.08
2018-11-14T03:48:54.845Z,100139.10
2018-11-14T03:51:23.022Z,100137.88
2018-11-14T03:53:51.231Z,100134.58
2018-11-14T03:56:19.415Z,100127.50
2018-11-14T03:58:47.687Z,100126.79
2018-11-14T04:01:15.828Z,100133.97
2018-11-14T04:03:44.008Z,100137.59
2018-11-14T04:06:12.169Z,100137.83
2018-11-14T04:08:40.312Z,100123.61
2018-11-14T04:11:08.629Z,100131.05
2018-11-14T04:13:36.805Z,100128.90
2018-11-14T04:16:05.458Z,100131.67
2018-11-14T04:18:33.896Z,100140.53
2018-11-14T04:21:02.063Z,100139.99
2018-11-14T04:23:30.246Z,100132.26
2018-11-14T04:25:58.458Z,100127.73
2018-11-14T04:28:27.116Z,100133.11
2018-11-14T04:30:55.284Z,100134.59
2018-11-14T04:33:23.532Z,100139.99
2018-11-14T04:35:51.691Z,100129.06
2018-11-14T04:38:19.813Z,100133.29
2018-11-14T04:40:47.975Z,100132.60
2018-11-14T04:43:16.128Z,100130.80
2018-11-14T04:45:44.368Z,100141.89
2018-11-14T04:48:12.601Z,100143.41
2018-11-14T04:50:40.725Z,100150.19
2018-11-14T04:53:08.858Z,100145.23
2018-11-14T04:55:37.116Z,100147.90
2018-11-14T04:58:05.424Z,100143.58
2018-11-14T05:00:33.560Z,100143.11
2018-11-14T05:03:01.740Z,100141.17
2018-11-14T05:05:30.008Z,100143.19
2018-11-14T05:07:58.185Z,100148.83
2018-11-14T05:10:27.176Z,100142.12
2018-11-14T05:12:55.476Z,100150.95
2018-11-14T05:15:24.768Z,100145.09
2018-11-14T05:17:53.439Z,100149.36
2018-11-14T05:20:22.149Z,100154.36
2018-11-14T05:22:50.740Z,100155.43
2018-11-14T05:25:19.564Z,100154.75
2018-11-14T05:27:47.763Z,100152.63
2018-11-14T05:30:17.463Z,100148.26
2018-11-14T05:32:46.758Z,100147.81
2018-11-14T05:35:15.379Z,100145.83
2018-11-14T05:37:43.859Z,100141.89
2018-11-14T05:40:15.207Z,100138.44
2018-11-14T05:42:43.947Z,100138.65
2018-11-14T05:45:16.267Z,100130.92
2018-11-14T05:47:44.716Z,100123.53
2018-11-14T05:50:17.592Z,100131.47
2018-11-14T05:52:45.781Z,100138.48
2018-11-14T05:55:14.679Z,100140.77
2018-11-14T05:57:42.900Z,100145.74
2018-11-14T06:00:16.782Z,100139.82
2018-11-14T06:02:45.680Z,100137.92
2018-11-14T06:05:13.823Z,100134.38
2018-11-14T06:07:42.029Z,100128.50
2018-11-14T06:10:11.577Z,100125.09
2018-11-14T06:12:40.370Z,100129.70
2018-11-14T06:15:12.103Z,100124.73
2018-11-14T06:17:40.754Z,100131.05
2018-11-14T06:20:10.884Z,100124.99
2018-11-14T06:22:39.111Z,100124.48
2018-11-14T06:25:39.107Z,100138.87
2018-11-14T06:28:08.610Z,100136.52
2018-11-14T06:30:37.499Z,100145.26
2018-11-14T06:33:06.929Z,100144.00
2018-11-14T06:35:35.151Z,100139.30
2018-11-14T06:38:03.351Z,100140.06
2018-11-14T06:40:31.517Z,100138.33
2018-11-14T06:42:59.726Z,100130.06
2018-11-14T06:45:29.408Z,100125.22
2018-11-14T06:47:59.430Z,100122.98
2018-11-14T06:50:28.308Z,100120.92
2018-11-14T06:52:57.952Z,100115.70
2018-11-14T06:55:26.184Z,100121.20
2018-11-14T06:57:54.319Z,100111.63
2018-11-14T07:00:27.427Z,100105.27
2018-11-14T07:02:56.229Z,100105.16
2018-11-14T07:05:24.457Z,100107.59
2018-11-14T07:07:52.552Z,100100.05
2018-11-14T07:10:23.135Z,100097.38
2018-11-14T07:12:51.283Z,100098.72
2018-11-14T07:15:20.629Z,100092.67
2018-11-14T07:17:49.704Z,100096.48
2018-11-14T07:20:21.627Z,100090.30
2018-11-14T07:22:49.817Z,100088.39
2018-11-14T07:25:18.107Z,100086.09
2018-11-14T07:27:46.688Z,100086.02
2018-11-14T07:30:17.538Z,100089.27
2018-11-14T07:32:47.151Z,100085.11
2018-11-14T07:35:16.060Z,100087.70
2018-11-14T07:38:53.971Z,100088.99
2018-11-14T07:41:25.935Z,100086.25
2018-11-14T07:43:54.247Z,100088.80
2018-11-14T07:46:23.059Z,100086.64
2018-11-14T07:48:51.816Z,100091.93
2018-11-14T07:51:20.147Z,100081.98
2018-11-14T07:53:48.359Z,100080.42
2018-11-14T07:56:16.589Z,100082.67
2018-11-14T07:58:44.752Z,100089.28
2018-11-14T08:01:13.010Z,100092.65
2018-11-14T08:03:41.319Z,100099.65
2018-11-14T08:06:09.513Z,100102.28
2018-11-14T08:08:37.690Z,100100.46
2018-11-14T08:11:06.457Z,100099.23
2018-11-14T08:13:35.453Z,100101.27
2018-11-14T08:16:03.932Z,100102.38
2018-11-14T08:18:32.147Z,100111.20
2018-11-14T08:21:01.319Z,100104.63
2018-11-14T08:23:30.511Z,100102.27
2018-11-14T08:25:58.825Z,100098.42
2018-11-14T08:28:26.956Z,100093.16
2018-11-14T08:30:55.232Z,100086.05
2018-11-14T08:33:23.411Z,100094.34
2018-11-14T08:35:51.624Z,100094.86
2018-11-14T08:38:19.903Z,100091.02
2018-11-14T08:40:48.096Z,100088.91
2018-11-14T08:43:16.272Z,100095.05
2018-11-14T08:45:44.791Z,100092.25
2018-11-14T08:48:12.954Z,100087.98
2018-11-14T08:50:41.465Z,100087.13
2018-11-14T08:53:10.430Z,100084.70
2018-11-14T08:55:38.975Z,100085.84
2018-11-14T08:58:09.015Z,100080.80
2018-11-14T09:00:37.212Z,100080.11
2018-11-14T09:03:06.504Z,100074.98
2018-11-14T09:05:34.647Z,100071.23
2018-11-14T09:08:02.858Z,100062.59
2018-11-14T09:10:31.814Z,100058.20
2018-11-14T09:13:00.086Z,100045.52
2018-11-14T09:15:28.219Z,100054.66
2018-11-14T09:17:56.553Z,100055.08
2018-11-14T09:20:25.984Z,100051.74
2018-11-14T09:22:54.247Z,100052.01
2018-11-14T09:25:24.029Z,100049.20
2018-11-14T09:27:52.233Z,100057.45
2018-11-14T09:30:21.583Z,100049.58
2018-11-14T09:32:49.782Z,100050.05
2018-11-14T09:35:19.092Z,100060.29
2018-11-14T09:37:47.512Z,100052.94
2018-11-14T09:40:17.316Z,100050.87
2018-11-14T09:42:45.554Z,100050.59
2018-11-14T09:45:15.820Z,100047.61
2018-11-14T09:47:44.059Z,100041.25
2018-11-14T09:50:15.475Z,100050.69
2018-11-14T09:52:44.818Z,100049.23
2018-11-14T09:55:13.293Z,100041.80
2018-11-14T09:57:42.176Z,100041.54
2018-11-14T10:00:14.579Z,100038.14
2018-11-14T10:02:43.294Z,100032.73
2018-11-14T10:05:14.832Z,100043.17
2018-11-14T10:07:43.240Z,100043.20
2018-11-14T10:10:12.751Z,100038.05
2018-11-14T10:12:40.921Z,100028.94
2018-11-14T10:15:12.233Z,100017.77
2018-11-14T10:17:40.883Z,100018.63
2018-11-14T10:20:11.070Z,100009.73
2018-11-14T10:22:39.520Z,100007.46
2018-11-14T10:25:07.811Z,100005.20
2018-11-14T10:27:36.395Z,99997.53
2018-11-14T10:30:05.785Z,100001.86
2018-11-14T10:32:33.988Z,99992.56
2018-11-14T10:35:02.148Z,99994.13
2018-11-14T10:37:30.318Z,99984.02
2018-11-14T10:39:58.612Z,99986.47
2018-11-14T10:42:26.851Z,99987.12
2018-11-14T10:44:55.066Z,99989.70
2018-11-14T10:47:23.461Z,99983.69
2018-11-14T10:49:51.632Z,99980.75
2018-11-14T10:52:19.792Z,99980.91
2018-11-14T10:54:48.024Z,99969.70
2018-11-14T10:57:16.323Z,99964.00
2018-11-14T10:59:44.517Z,99965.67
2018-11-14T11:02:18.036Z,99965.39
2018-11-14T11:04:51.683Z,99960.72
2018-11-14T11:07:25.246Z,99962.45
2018-11-14T11:09:58.845Z,99956.31
2018-11-14T11:12:32.300Z,99954.41
2018-11-14T11:15:05.800Z,99951.09
2018-11-14T11:17:39.427Z,99955.30
2018-11-14T11:20:07.620Z,99958.86
2018-11-14T11:22:35.820Z,99963.08
2018-11-14T11:25:04.152Z,99947.09
2018-11-14T11:27:32.368Z,99941.30
2018-11-14T11:30:00.505Z,99944.48
2018-11-14T11:32:28.787Z,99934.22
2018-11-14T11:34:56.945Z,99934.91
2018-11-14T11:37:25.278Z,99923.38
2018-11-14T11:39:53.565Z,99918.23
2018-11-14T11:42:21.744Z,99907.69
2018-11-14T11:44:50.201Z,99906.75
2018-11-14T11:47:18.483Z,99915.11
2018-11-14T11:49:46.763Z,99911.27
2018-11-14T11:52:15.170Z,99905.47
2018-11-14T11:54:43.361Z,99903.55
2018-11-14T11:57:11.599Z,99894.79
2018-11-14T11:59:39.880Z,99883.62
2018-11-14T12:02:08.239Z,99881.89
2018-11-14T12:04:36.991Z,99883.36
2018-11-14T12:07:05.259Z,99884.39
2018-11-14T12:09:33.407Z,99875.05
2018-11-14T12:12:01.972Z,99869.80
2018-11-14T12:14:30.147Z,99866.53
2018-11-14T12:16:58.287Z,99865.30
2018-11-14T12:19:26.429Z,99863.23
2018-11-14T12:21:54.588Z,99853.17
2018-11-14T12:24:22.771Z,99857.69
2018-11-14T12:26:51.027Z,99846.50
2018-11-14T12:29:19.233Z,99847.90
2018-11-14T12:31:47.526Z,99836.39
2018-11-14T12:34:15.684Z,99838.42
2018-11-14T12:36:43.980Z,99837.14
2018-11-14T12:39:12.115Z,99833.59
2018-11-14T12:41:40.516Z,99835.97
2018-11-14T12:44:08.826Z,99833.20
2018-11-14T12:46:37.023Z,99826.23
2018-11-14T12:49:05.432Z,99828.18
2018-11-14T12:51:33.762Z,99828.99
2018-11-14T12:54:02.165Z,99830.94
2018-11-14T12:56:30.511Z,99822.61
2018-11-14T12:58:58.759Z,99825.69
2018-11-14T13:01:26.956Z,99818.03
2018-11-14T13:03:55.164Z,99820.09
2018-11-14T13:06:23.461Z,99815.61
2018-11-14T13:08:51.603Z,99808.34
2018-11-14T13:11:19.749Z,99801.59
2018-11-14T13:13:48.779Z,99799.47
2018-11-14T13:16:17.995Z,99797.91
2018-11-14T13:18:46.425Z,99794.34
2018-11-14T13:21:14.779Z,99803.68
2018-11-14T13:23:43.151Z,99800.06
2018-11-14T13:26:11.436Z,99795.16
2018-11-14T13:28:39.845Z,99797.44
2018-11-14T13:31:08.455Z,99799.77
2018-11-14T13:33:36.892Z,99802.02
2018-11-14T13:36:05.090Z,99791.95
2018-11-14T13:38:33.242Z,99788.37
2018-11-14T13:41:01.441Z,99789.23
2018-11-14T13:43:29.722Z,99782.53
2018-11-14T13:45:58.164Z,99786.09
2018-11-14T13:48:26.399Z,99789.31
2018-11-14T13:50:54.964Z,99790.94
2018-11-14T13:53:22.944Z,99791.64
2018-11-14T13:55:51.112Z,99793.66
2018-11-14T13:58:19.257Z,99800.12
2018-11-14T14:00:47.476Z,99789.81
2018-11-14T14:03:15.715Z,99792.06
2018-11-14T14:05:43.938Z,99789.94
2018-11-14T14:08:12.192Z,99787.06
2018-11-14T14:10:41.176Z,99789.31
2018-11-14T14:13:09.391Z,99796.48
2018-11-14T14:15:37.838Z,99793.70
2018-11-14T14:18:06.379Z,99793.31
2018-11-14T14:20:34.670Z,99795.59
2018-11-14T14:23:02.840Z,99789.94
2018-11-14T14:25:31.073Z,99789.16
2018-11-14T14:27:59.305Z,99785.52
2018-11-14T14:30:27.558Z,99790.20
2018-11-14T14:32:55.714Z,99789.31
2018-11-14T14:35:24.052Z,99789.20
2018-11-14T14:37:52.256Z,99797.11
2018-11-14T14:40:21.637Z,99799.39
2018-11-14T14:42:49.935Z,99799.04
2018-11-14T14:45:20.495Z,99795.16
2018-11-14T14:47:48.715Z,99799.50
2018-11-14T14:50:18.071Z,99799.62
2018-11-14T14:52:46.567Z,99800.38
2018-11-14T14:55:20.085Z,99801.75
2018-11-14T14:57:48.584Z,99804.34
2018-11-14T15:00:19.903Z,99807.90
2018-11-14T15:02:48.125Z,99806.23
2018-11-14T15:05:16.271Z,99799.83
2018-11-14T15:07:44.512Z,99795.25
2018-11-14T15:10:14.987Z,99797.58
2018-11-14T15:12:43.519Z,99787.42
2018-11-14T15:15:12.108Z,99796.89
2018-11-14T15:17:40.425Z,99794.80
2018-11-14T15:20:11.868Z,99785.62
2018-11-14T15:22:40.248Z,99787.16
2018-11-14T15:25:10.389Z,99783.70
2018-11-14T15:27:39.530Z,99782.63
2018-11-14T15:30:11.588Z,99776.89
2018-11-14T15:32:40.788Z,99775.86
2018-11-14T15:35:10.127Z,99777.29
2018-11-14T15:37:38.541Z,99779.63
2018-11-14T15:40:08.543Z,99777.01
2018-11-14T15:42:37.487Z,99775.23
2018-11-14T15:45:07.307Z,99771.47
2018-11-14T15:47:36.373Z,99766.12
2018-11-14T15:50:05.994Z,99774.39
2018-11-14T15:52:34.215Z,99772.32
2018-11-14T15:55:02.648Z,99774.84
2018-11-14T15:57:30.946Z,99771.53
2018-11-14T15:59:59.099Z,99772.84
2018-11-14T16:02:27.380Z,99774.71
2018-11-14T16:04:55.728Z,99777.44
2018-11-14T16:07:23.880Z,99781.27
2018-11-14T16:09:52.120Z,99773.39
2018-11-14T16:12:20.418Z,99776.87
2018-11-14T16:14:48.636Z,99774.41
2018-11-14T16:17:16.906Z,99772.73
2018-11-14T16:19:45.980Z,99770.30
2018-11-14T16:22:14.346Z,99767.58
2018-11-14T16:24:42.599Z,99772.43
2018-11-14T16:27:10.855Z,99775.25
2018-11-14T16:29:38.985Z,99777.41
2018-11-14T16:32:07.219Z,99771.02
2018-11-14T16:34:35.523Z,99773.53
2018-11-14T16:37:03.755Z,99771.09
2018-11-14T16:39:31.883Z,99771.20
2018-11-14T16:42:00.079Z,99772.67
2018-11-14T16:44:28.523Z,99771.65
2018-11-14T16:46:56.875Z,99772.76
2018-11-14T16:49:25.255Z,99774.05
2018-11-14T16:51:56.431Z,99780.31
2018-11-14T16:54:24.671Z,99780.49
2018-11-14T16:56:53.144Z,99777.76
2018-11-14T16:59:21.292Z,99787.28
2018-11-14T17:01:49.491Z,99773.16
2018-11-14T17:04:17.767Z,99781.02
2018-11-14T17:06:46.071Z,99783.50
2018-11-14T17:09:14.389Z,99786.46
2018-11-14T17:11:42.675Z,99788.05
2018-11-14T17:14:10.945Z,99790.48
2018-11-14T17:16:39.359Z,99789.69
2018-11-14T17:19:07.676Z,99795.89
2018-11-14T17:21:36.138Z,99794.81
2018-11-14T17:24:04.357Z,99802.04
2018-11-14T17:26:32.607Z,99802.80
2018-11-14T17:29:00.767Z,99813.39
2018-11-14T17:31:28.963Z,99811.85
2018-11-14T17:33:57.327Z,99821.83
2018-11-14T17:36:25.490Z,99819.21
2018-11-14T17:38:53.631Z,99820.93
2018-11-14T17:41:21.888Z,99817.28
2018-11-14T17:43:50.062Z,99821.92
2018-11-14T17:46:18.349Z,99820.56
2018-11-14T17:48:46.560Z,99823.22
2018-11-14T17:51:14.720Z,99824.38
2018-11-14T17:53:43.051Z,99820.62
2018-11-14T17:56:11.236Z,99825.48
2018-11-14T17:58:39.390Z,99827.34
2018-11-14T18:01:07.673Z,99832.72
2018-11-14T18:03:35.740Z,99838.50
2018-11-14T18:06:03.967Z,99837.48
2018-11-14T18:08:32.168Z,99837.55
2018-11-14T18:11:00.307Z,99839.22
2018-11-14T18:13:28.796Z,99842.41
2018-11-14T18:15:57.595Z,99839.09
2018-11-14T18:18:25.795Z,99839.45
2018-11-14T18:20:53.957Z,99837.95
2018-11-14T18:23:22.263Z,99842.32
2018-11-14T18:25:51.235Z,99842.97
2018-11-14T18:28:19.557Z,99832.44
2018-11-14T18:30:47.833Z,99832.36
2018-11-14T18:33:16.024Z,99832.44
2018-11-14T18:35:44.226Z,99836.03
2018-11-14T18:38:12.504Z,99831.63
2018-11-14T18:40:40.741Z,99837.16
2018-11-14T18:43:08.969Z,99842.87
2018-11-14T18:45:37.160Z,99837.11
2018-11-14T18:48:06.239Z,99841.36
2018-11-14T18:50:34.526Z,99844.67
2018-11-14T18:53:02.856Z,99839.91
2018-11-14T18:55:32.479Z,99849.48
2018-11-14T18:58:01.537Z,99843.88
2018-11-14T19:00:30.940Z,99837.26
2018-11-14T19:02:59.348Z,99836.30
2018-11-14T19:05:27.610Z,99842.47
2018-11-14T19:07:56.179Z,99844.07
2018-11-14T19:10:26.140Z,99836.09
2018-11-14T19:12:54.468Z,99839.26
2018-11-14T19:15:25.711Z,99842.50
2018-11-14T19:17:54.093Z,99830.69
2018-11-14T19:20:29.924Z,99831.65
2018-11-14T19:22:58.967Z,99831.45
2018-11-14T19:25:30.529Z,99828.11
2018-11-14T19:27:58.795Z,99825.27
2018-11-14T19:30:28.687Z,99819.57
2018-11-14T19:32:57.554Z,99826.77
2018-11-14T19:35:25.890Z,99816.33
2018-11-14T19:37:55.324Z,99818.27
2018-11-14T19:40:24.860Z,99815.77
2018-11-14T19:42:54.644Z,99818.05
2018-11-14T19:45:24.340Z,99815.29
2018-11-14T19:47:52.793Z,99818.13
2018-11-14T19:50:21.872Z,99826.59
2018-11-14T19:52:50.397Z,99830.12
2018-11-14T19:55:19.738Z,99824.84
2018-11-14T19:57:48.907Z,99821.66
2018-11-14T20:00:19.683Z,99818.27
2018-11-14T20:02:47.824Z,99810.52
2018-11-14T20:05:16.912Z,99823.49
2018-11-14T20:07:45.099Z,99826.77
2018-11-14T20:10:15.066Z,99813.17
2018-11-14T20:12:43.471Z,99815.09
2018-11-14T20:15:12.779Z,99822.32
2018-11-14T20:17:42.154Z,99824.54
2018-11-14T20:20:12.569Z,99818.55
2018-11-14T20:22:40.927Z,99819.79
2018-11-14T20:25:09.209Z,99820.72
2018-11-14T20:27:38.848Z,99819.45
2018-11-14T20:30:10.636Z,99829.43
2018-11-14T20:32:38.871Z,99824.14
2018-11-14T20:35:08.054Z,99821.75
2018-11-14T20:37:36.384Z,99817.13
2018-11-14T20:40:05.053Z,99828.89
2018-11-14T20:42:33.297Z,99833.39
2018-11-14T20:45:01.471Z,99829.41
2018-11-14T20:47:29.724Z,99832.94
2018-11-14T20:49:57.944Z,99828.97
2018-11-14T20:52:26.170Z,99835.20
2018-11-14T20:54:57.241Z,99829.28
2018-11-14T20:57:25.748Z,99830.38
2018-11-14T20:59:54.243Z,99819.36
2018-11-14T21:02:22.505Z,99837.56
2018-11-14T21:04:50.669Z,99838.01
2018-11-14T21:07:18.844Z,99839.38
2018-11-14T21:09:47.251Z,99841.84
2018-11-14T21:12:15.339Z,99842.75
2018-11-14T21:14:43.478Z,99845.33
2018-11-14T21:17:11.657Z,99840.58
2018-11-14T21:19:39.903Z,99835.72
2018-11-14T21:22:11.723Z,99836.92
2018-11-14T21:24:39.944Z,99832.45
2018-11-14T21:27:08.299Z,99836.36
2018-11-14T21:29:36.501Z,99841.05
2018-11-14T21:32:05.500Z,99842.98
2018-11-14T21:34:33.756Z,99840.03
2018-11-14T21:37:02.261Z,99838.73
2018-11-14T21:39:30.447Z,99835.11
2018-11-14T21:41:59.353Z,99839.02
2018-11-14T21:44:27.499Z,99831.97
2018-11-14T21:46:55.672Z,99835.08
2018-11-14T21:49:27.014Z,99833.33
2018-11-14T21:51:56.586Z,99830.31
2018-11-14T21:54:25.511Z,99827.17
2018-11-14T21:56:54.084Z,99829.58
2018-11-14T22:02:37.482Z,99830.80
2018-11-14T22:05:06.504Z,99824.38
2018-11-14T22:07:34.894Z,99817.22
2018-11-14T22:10:03.053Z,99818.73
2018-11-14T22:12:31.258Z,99808.66
2018-11-14T22:14:59.788Z,99810.17
2018-11-14T22:17:28.038Z,99819.16
2018-11-14T22:19:56.295Z,99814.64
2018-11-14T22:22:24.915Z,99811.59
2018-11-14T22:24:53.159Z,99814.81
2018-11-14T22:27:21.742Z,99811.14
2018-11-14T22:29:50.136Z,99811.93
2018-11-14T22:32:18.668Z,99812.92
2018-11-14T22:34:46.943Z,99805.89
2018-11-14T22:37:15.357Z,99809.66
2018-11-14T22:39:43.720Z,99807.05
2018-11-14T22:42:11.908Z,99801.22
2018-11-14T22:44:40.233Z,99806.41
2018-11-14T22:47:08.421Z,99805.25
2018-11-14T22:49:36.592Z,99799.25
2018-11-14T22:52:05.181Z,99805.30
2018-11-14T22:54:33.636Z,99807.84
2018-11-14T22:57:01.944Z,99806.09
2018-11-14T22:59:30.760Z,99806.41
2018-11-14T23:01:59.005Z,99817.20
2018-11-14T23:04:27.223Z,99811.83
2018-11-14T23:06:55.371Z,99814.73
2018-11-14T23:09:23.840Z,99810.63
2018-11-14T23:11:52.087Z,99812.05
2018-11-14T23:14:20.278Z,99810.96
2018-11-14T23:16:48.526Z,99816.00
2018-11-14T23:19:16.730Z,99816.45
2018-11-14T23:21:44.862Z,99816.01
2018-11-14T23:24:13.129Z,99814.47
2018-11-14T23:26:41.395Z,99813.95
2018-11-14T23:29:09.677Z,99804.91
2018-11-14T23:31:38.232Z,99808.84
2018-11-14T23:34:06.468Z,99808.56
2018-11-14T23:36:34.756Z,99805.11
2018-11-14T23:39:03.220Z,99805.17
2018-11-14T23:41:31.853Z,99801.91
2018-11-14T23:44:00.029Z,99801.39
2018-11-14T23:46:28.559Z,99797.18
2018-11-14T23:48:56.719Z,99795.75
2018-11-14T23:51:25.200Z,99794.63
2018-11-14T23:53:53.380Z,99800.36
2018-11-14T23:56:21.611Z,99792.93
2018-11-14T23:58:49.796Z,99794.16
